Verona, Virginia
Current Conditions -  °F | °C
As of 3:55 PM on Tuesday 21 Oct 2014 (Local Time) from KSHD Reporting Station
Drizzle Drizzle  
Wind Chill: 57°   Ceiling: 6500
Heat Index: 57°   Visibility: 10mi
Dew Point: 49°   Wind: 5mph
Humidity: 75%   Direction: 260°W
Pressure: 29.86"   Gusts: NA
Location:  38.2°N, 79.01°W
Report Text: KSHD 211955Z AUTO 26004KT 10SM -DZ SCT050 OVC065 14/09 A2986 RMK AO2 T01370093
Loading
Personal Weather Stations






























Interactive Weather Map
Tropical Storm Tracking
New forecast layout! Learn more

10-Day Weather Forecast

Advertisements
Track Severe Weather on mobile